createdAt,value
2018-10-17T00:02:27.869Z,8.62
2018-10-17T00:04:58.572Z,8.61
2018-10-17T00:07:28.001Z,8.53
2018-10-17T00:09:58.517Z,8.46
2018-10-17T00:12:28.188Z,8.52
2018-10-17T00:14:57.745Z,8.33
2018-10-17T00:17:27.276Z,8.22
2018-10-17T00:19:56.591Z,8.15
2018-10-17T00:22:26.209Z,8.10
2018-10-17T00:24:55.691Z,8.03
2018-10-17T00:27:26.200Z,8.04
2018-10-17T00:29:56.543Z,8.05
2018-10-17T00:32:26.088Z,8.17
2018-10-17T00:34:55.895Z,8.22
2018-10-17T00:37:24.557Z,8.26
2018-10-17T00:39:54.032Z,8.34
2018-10-17T00:42:22.624Z,8.24
2018-10-17T00:44:51.742Z,8.21
2018-10-17T00:47:20.361Z,8.22
2018-10-17T00:49:48.920Z,8.37
2018-10-17T00:52:17.570Z,8.50
2018-10-17T00:54:46.178Z,8.29
2018-10-17T00:57:14.774Z,8.14
2018-10-17T00:59:43.311Z,8.05
2018-10-17T01:02:11.877Z,8.12
2018-10-17T01:04:41.322Z,8.26
2018-10-17T01:07:09.948Z,8.29
2018-10-17T01:09:39.409Z,8.21
2018-10-17T01:12:09.036Z,8.01
2018-10-17T01:14:37.571Z,7.86
2018-10-17T01:17:06.307Z,7.79
2018-10-17T01:19:35.773Z,7.81
2018-10-17T01:22:04.395Z,7.84
2018-10-17T01:24:32.980Z,7.82
2018-10-17T01:27:01.558Z,7.77
2018-10-17T01:29:31.179Z,7.73
2018-10-17T01:31:59.793Z,7.70
2018-10-17T01:34:28.353Z,7.68
2018-10-17T01:36:57.260Z,7.67
2018-10-17T01:39:26.494Z,7.65
2018-10-17T01:41:55.722Z,7.70
2018-10-17T01:44:25.985Z,7.70
2018-10-17T01:46:54.603Z,7.68
2018-10-17T01:49:24.051Z,7.66
2018-10-17T01:51:52.591Z,7.62
2018-10-17T01:54:21.151Z,7.57
2018-10-17T01:56:49.740Z,7.58
2018-10-17T01:59:18.291Z,7.56
2018-10-17T02:01:46.929Z,7.53
2018-10-17T02:04:15.495Z,7.45
2018-10-17T02:06:44.052Z,7.40
2018-10-17T02:09:12.590Z,7.33
2018-10-17T02:11:41.143Z,7.29
2018-10-17T02:14:09.681Z,7.27
2018-10-17T02:16:38.225Z,7.25
2018-10-17T02:19:06.800Z,7.21
2018-10-17T02:21:35.435Z,7.20
2018-10-17T02:24:03.978Z,7.22
2018-10-17T02:26:33.848Z,7.30
2018-10-17T02:29:02.499Z,7.30
2018-10-17T02:31:31.802Z,7.29
2018-10-17T02:34:01.342Z,7.32
2018-10-17T02:36:29.842Z,7.36
2018-10-17T02:38:58.381Z,7.29
2018-10-17T02:41:27.297Z,7.22
2018-10-17T02:43:57.409Z,7.14
2018-10-17T02:46:26.994Z,7.17
2018-10-17T02:48:55.792Z,7.15
2018-10-17T02:51:25.689Z,7.03
2018-10-17T02:53:55.507Z,7.04
2018-10-17T02:56:24.083Z,6.97
2018-10-17T02:58:52.658Z,6.88
2018-10-17T03:01:21.220Z,6.85
2018-10-17T03:03:49.728Z,6.83
2018-10-17T03:06:18.245Z,6.85
2018-10-17T03:08:46.817Z,6.86
2018-10-17T03:11:15.428Z,6.90
2018-10-17T03:13:43.967Z,6.84
2018-10-17T03:16:13.511Z,6.82
2018-10-17T03:18:42.049Z,6.81
2018-10-17T03:21:10.570Z,6.86
2018-10-17T03:23:39.108Z,6.89
2018-10-17T03:26:07.672Z,6.90
2018-10-17T03:28:36.198Z,6.90
2018-10-17T03:31:04.757Z,6.89
2018-10-17T03:33:33.337Z,6.86
2018-10-17T03:36:02.084Z,6.83
2018-10-17T03:38:30.441Z,6.84
2018-10-17T03:40:59.008Z,6.86
2018-10-17T03:43:28.814Z,6.88
2018-10-17T03:45:57.981Z,7.00
2018-10-17T03:48:27.133Z,7.03
2018-10-17T03:50:55.675Z,6.95
2018-10-17T03:53:24.798Z,6.79
2018-10-17T03:55:53.329Z,6.77
2018-10-17T03:58:21.875Z,6.70
2018-10-17T04:00:50.758Z,6.62
2018-10-17T04:03:19.326Z,6.60
2018-10-17T04:05:47.891Z,6.56
2018-10-17T04:08:16.434Z,6.52
2018-10-17T04:10:45.004Z,6.50
2018-10-17T04:13:14.448Z,6.66
2018-10-17T04:15:43.006Z,6.74
2018-10-17T04:18:11.576Z,6.69
2018-10-17T04:20:41.059Z,6.63
2018-10-17T04:23:09.657Z,6.61
2018-10-17T04:25:38.326Z,6.66
2018-10-17T04:28:06.899Z,6.74
2018-10-17T04:30:35.448Z,6.69
2018-10-17T04:33:03.981Z,6.66
2018-10-17T04:35:32.554Z,6.60
2018-10-17T04:38:01.176Z,6.63
2018-10-17T04:40:29.747Z,6.57
2018-10-17T04:42:58.351Z,6.63
2018-10-17T04:45:28.020Z,6.60
2018-10-17T04:47:57.272Z,6.60
2018-10-17T04:50:26.583Z,6.60
2018-10-17T04:52:56.811Z,6.62
2018-10-17T04:55:25.708Z,6.59
2018-10-17T04:57:54.696Z,6.74
2018-10-17T05:00:26.061Z,6.80
2018-10-17T05:02:55.591Z,6.75
2018-10-17T05:05:25.328Z,6.67
2018-10-17T05:07:54.029Z,6.56
2018-10-17T05:10:22.658Z,6.51
2018-10-17T05:12:52.472Z,6.45
2018-10-17T05:15:21.287Z,6.34
2018-10-17T05:17:50.054Z,6.39
2018-10-17T05:20:20.061Z,6.42
2018-10-17T05:22:48.666Z,6.49
2018-10-17T05:25:17.266Z,6.35
2018-10-17T05:27:45.828Z,6.31
2018-10-17T05:30:15.390Z,6.41
2018-10-17T05:32:43.991Z,6.42
2018-10-17T05:35:12.674Z,6.33
2018-10-17T05:37:41.338Z,6.38
2018-10-17T05:40:09.973Z,6.47
2018-10-17T05:42:38.463Z,6.46
2018-10-17T05:45:08.203Z,6.47
2018-10-17T05:47:36.931Z,6.43
2018-10-17T05:50:05.661Z,6.48
2018-10-17T05:52:34.234Z,6.62
2018-10-17T05:55:02.841Z,6.51
2018-10-17T05:57:32.048Z,6.45
2018-10-17T06:00:00.586Z,6.40
2018-10-17T06:02:31.948Z,6.40
2018-10-17T06:05:01.160Z,6.41
2018-10-17T06:07:30.226Z,6.39
2018-10-17T06:09:58.805Z,6.40
2018-10-17T06:12:28.137Z,6.40
2018-10-17T06:14:57.531Z,6.51
2018-10-17T06:17:26.654Z,6.57
2018-10-17T06:19:56.206Z,6.59
2018-10-17T06:22:25.431Z,6.59
2018-10-17T06:24:55.756Z,6.66
2018-10-17T06:27:26.181Z,6.63
2018-10-17T06:29:55.982Z,6.63
2018-10-17T06:32:26.018Z,6.66
2018-10-17T06:34:55.653Z,6.73
2018-10-17T06:37:25.868Z,6.80
2018-10-17T06:39:56.077Z,6.99
2018-10-17T06:42:24.637Z,7.06
2018-10-17T06:44:54.082Z,7.20
2018-10-17T06:47:22.701Z,7.25
2018-10-17T06:49:52.177Z,7.26
2018-10-17T06:52:21.795Z,7.33
2018-10-17T06:54:50.459Z,7.38
2018-10-17T06:57:20.073Z,7.47
2018-10-17T06:59:48.640Z,7.48
2018-10-17T07:02:17.288Z,7.50
2018-10-17T07:04:46.871Z,7.55
2018-10-17T07:07:16.423Z,7.73
2018-10-17T07:09:44.954Z,7.99
2018-10-17T07:12:13.550Z,8.07
2018-10-17T07:14:42.164Z,8.12
2018-10-17T07:17:10.822Z,8.27
2018-10-17T07:19:39.659Z,8.36
2018-10-17T07:22:08.235Z,8.42
2018-10-17T07:24:36.890Z,8.47
2018-10-17T07:27:06.300Z,8.42
2018-10-17T07:29:36.023Z,8.57
2018-10-17T07:32:04.613Z,8.65
2018-10-17T07:34:34.135Z,8.69
2018-10-17T07:37:02.726Z,8.75
2018-10-17T07:39:32.313Z,8.81
2018-10-17T07:42:01.867Z,8.92
2018-10-17T07:44:30.477Z,9.12
2018-10-17T07:46:59.446Z,9.27
2018-10-17T07:49:28.094Z,9.50
2018-10-17T07:51:57.278Z,9.56
2018-10-17T07:54:27.343Z,9.65
2018-10-17T07:56:56.577Z,9.75
2018-10-17T07:59:27.333Z,9.89
2018-10-17T08:01:57.574Z,10.07
2018-10-17T08:04:28.184Z,10.18
2018-10-17T08:06:57.583Z,10.25
2018-10-17T08:09:27.991Z,10.39
2018-10-17T08:11:58.711Z,10.42
2018-10-17T08:14:28.192Z,10.54
2018-10-17T08:16:58.763Z,10.71
2018-10-17T08:19:28.331Z,10.73
2018-10-17T08:21:58.001Z,10.91
2018-10-17T08:24:27.932Z,11.06
2018-10-17T08:26:58.184Z,11.18
2018-10-17T08:29:28.997Z,11.23
2018-10-17T08:31:59.308Z,11.31
2018-10-17T08:34:28.804Z,11.40
2018-10-17T08:36:58.545Z,11.43
2018-10-17T08:39:27.784Z,11.56
2018-10-17T08:41:57.780Z,11.67
2018-10-17T08:44:28.464Z,11.83
2018-10-17T08:46:57.964Z,11.94
2018-10-17T08:49:27.741Z,12.01
2018-10-17T08:51:56.942Z,12.13
2018-10-17T08:54:27.672Z,12.27
2018-10-17T08:56:57.854Z,12.42
2018-10-17T08:59:28.123Z,12.54
2018-10-17T09:01:58.736Z,12.60
2018-10-17T09:04:28.448Z,12.77
2018-10-17T09:06:57.593Z,12.79
2018-10-17T09:09:26.930Z,12.91
2018-10-17T09:11:56.912Z,12.98
2018-10-17T09:14:26.993Z,13.08
2018-10-17T09:16:56.901Z,13.24
2018-10-17T09:19:26.348Z,13.32
2018-10-17T09:21:56.086Z,13.45
2018-10-17T09:24:25.474Z,13.58
2018-10-17T09:26:54.140Z,13.65
2018-10-17T09:29:22.725Z,13.78
2018-10-17T09:31:52.112Z,13.98
2018-10-17T09:34:20.693Z,14.09
2018-10-17T09:36:50.284Z,14.11
2018-10-17T09:39:19.856Z,14.37
2018-10-17T09:41:48.497Z,14.55
2018-10-17T09:44:17.075Z,14.60
2018-10-17T09:46:45.721Z,14.83
2018-10-17T09:49:15.317Z,14.95
2018-10-17T09:51:44.807Z,15.08
2018-10-17T09:54:14.352Z,15.24
2018-10-17T09:56:43.953Z,15.40
2018-10-17T09:59:12.519Z,15.56
2018-10-17T10:01:47.184Z,15.62
2018-10-17T10:04:16.866Z,15.54
2018-10-17T10:06:46.633Z,15.66
2018-10-17T10:09:15.184Z,15.80
2018-10-17T10:11:43.748Z,15.86
2018-10-17T10:14:13.292Z,15.97
2018-10-17T10:16:41.854Z,16.07
2018-10-17T10:19:10.468Z,16.19
2018-10-17T10:21:39.025Z,16.30
2018-10-17T10:24:07.709Z,16.44
2018-10-17T10:26:36.261Z,16.52
2018-10-17T10:29:04.910Z,16.67
2018-10-17T10:31:33.481Z,16.63
2018-10-17T10:34:02.095Z,16.74
2018-10-17T10:36:30.656Z,16.77
2018-10-17T10:38:59.234Z,16.86
2018-10-17T10:41:27.918Z,16.96
2018-10-17T10:43:57.018Z,17.07
2018-10-17T10:46:26.028Z,17.14
2018-10-17T10:48:54.965Z,17.32
2018-10-17T10:51:23.726Z,17.36
2018-10-17T10:53:52.162Z,17.42
2018-10-17T10:56:20.739Z,17.60
2018-10-17T10:58:49.471Z,17.62
2018-10-17T11:01:18.269Z,17.73
2018-10-17T11:03:47.894Z,17.81
2018-10-17T11:06:16.432Z,17.78
2018-10-17T11:08:45.007Z,17.88
2018-10-17T11:11:13.617Z,17.97
2018-10-17T11:13:43.105Z,18.10
2018-10-17T11:16:11.658Z,18.18
2018-10-17T11:18:41.898Z,18.18
2018-10-17T11:21:10.539Z,18.29
2018-10-17T11:23:39.135Z,18.36
2018-10-17T11:26:07.702Z,18.45
2018-10-17T11:28:36.288Z,18.47
2018-10-17T11:31:04.876Z,18.47
2018-10-17T11:33:33.433Z,18.56
2018-10-17T11:36:02.017Z,18.59
2018-10-17T11:38:30.614Z,18.70
2018-10-17T11:40:59.232Z,18.81
2018-10-17T11:43:28.421Z,18.94
2018-10-17T11:45:57.452Z,18.95
2018-10-17T11:48:26.669Z,18.96
2018-10-17T11:50:56.355Z,18.98
2018-10-17T11:53:26.486Z,18.94
2018-10-17T11:55:55.503Z,19.05
2018-10-17T11:58:24.079Z,19.11
2018-10-17T12:00:52.695Z,19.06
2018-10-17T12:03:21.609Z,19.12
2018-10-17T12:05:50.378Z,19.23
2018-10-17T12:08:18.809Z,19.21
2018-10-17T12:10:47.421Z,19.27
2018-10-17T12:13:15.962Z,19.38
2018-10-17T12:15:45.012Z,19.50
2018-10-17T12:18:13.862Z,19.49
2018-10-17T12:20:42.432Z,19.47
2018-10-17T12:23:11.008Z,19.47
2018-10-17T12:25:39.612Z,19.47
2018-10-17T12:28:08.386Z,19.52
2018-10-17T12:30:36.871Z,19.49
2018-10-17T12:33:06.598Z,19.43
2018-10-17T12:35:35.152Z,19.40
2018-10-17T12:38:03.722Z,19.48
2018-10-17T12:40:32.421Z,19.49
2018-10-17T12:43:00.898Z,19.54
2018-10-17T12:45:29.481Z,19.51
2018-10-17T12:47:58.079Z,19.55
2018-10-17T12:50:27.534Z,19.63
2018-10-17T12:52:57.256Z,19.57
2018-10-17T12:55:26.830Z,19.59
2018-10-17T12:57:55.943Z,19.52
2018-10-17T13:00:24.487Z,19.52
2018-10-17T13:02:53.038Z,19.53
2018-10-17T13:05:21.624Z,19.49
2018-10-17T13:07:50.236Z,19.50
2018-10-17T13:10:18.808Z,19.49
2018-10-17T13:12:47.370Z,19.48
2018-10-17T13:15:15.971Z,19.50
2018-10-17T13:17:45.825Z,19.55
2018-10-17T13:20:14.831Z,19.54
2018-10-17T13:22:43.395Z,19.51
2018-10-17T13:25:12.102Z,19.49
2018-10-17T13:27:40.615Z,19.45
2018-10-17T13:30:09.523Z,19.44
2018-10-17T13:32:38.286Z,19.40
2018-10-17T13:35:07.499Z,19.34
2018-10-17T13:37:36.393Z,19.26
2018-10-17T13:40:05.174Z,19.25
2018-10-17T13:42:33.736Z,19.25
2018-10-17T13:45:02.413Z,19.22
2018-10-17T13:47:31.317Z,19.18
2018-10-17T13:50:00.147Z,19.21
2018-10-17T13:52:28.646Z,19.28
2018-10-17T13:54:57.888Z,19.20
2018-10-17T13:57:27.576Z,19.20
2018-10-17T13:59:56.812Z,19.10
2018-10-17T14:02:25.696Z,19.08
2018-10-17T14:04:54.784Z,19.01
2018-10-17T14:07:25.049Z,18.96
2018-10-17T14:09:53.590Z,18.96
2018-10-17T14:12:22.153Z,18.95
2018-10-17T14:14:50.701Z,18.94
2018-10-17T14:17:19.255Z,18.94
2018-10-17T14:19:47.797Z,18.86
2018-10-17T14:22:16.385Z,18.80
2018-10-17T14:24:44.899Z,18.72
2018-10-17T14:27:13.860Z,18.69
2018-10-17T14:29:42.461Z,18.67
2018-10-17T14:32:10.988Z,18.59
2018-10-17T14:34:39.573Z,18.59
2018-10-17T14:37:08.313Z,18.51
2018-10-17T14:39:36.983Z,18.53
2018-10-17T14:42:05.947Z,18.45
2018-10-17T14:44:34.550Z,18.43
2018-10-17T14:47:03.105Z,18.39
2018-10-17T14:49:31.710Z,18.28
2018-10-17T14:52:00.503Z,18.18
2018-10-17T14:54:29.936Z,18.12
2018-10-17T14:56:58.603Z,18.02
2018-10-17T14:59:27.770Z,17.95
2018-10-17T15:01:56.988Z,17.87
2018-10-17T15:04:25.996Z,17.80
2018-10-17T15:06:54.548Z,17.71
2018-10-17T15:09:24.166Z,17.65
2018-10-17T15:11:53.174Z,17.56
2018-10-17T15:14:21.672Z,17.39
2018-10-17T15:16:50.595Z,17.25
2018-10-17T15:19:19.193Z,17.12
2018-10-17T15:21:47.772Z,16.98
2018-10-17T15:24:16.403Z,16.90
2018-10-17T15:26:45.015Z,16.78
2018-10-17T15:29:13.581Z,16.68
2018-10-17T15:31:42.420Z,16.56
2018-10-17T15:34:11.180Z,16.44
2018-10-17T15:36:39.776Z,16.38
2018-10-17T15:39:10.335Z,16.29
2018-10-17T15:41:39.801Z,16.17
2018-10-17T15:44:09.002Z,16.10
2018-10-17T15:46:38.513Z,16.04
2018-10-17T15:49:07.370Z,15.95
2018-10-17T15:51:36.124Z,15.88
2018-10-17T15:54:04.832Z,15.80
2018-10-17T15:56:34.439Z,15.73
2018-10-17T15:59:03.925Z,15.66
2018-10-17T16:01:33.418Z,15.61
2018-10-17T16:04:02.054Z,15.55
2018-10-17T16:06:30.669Z,15.52
2018-10-17T16:09:00.287Z,15.44
2018-10-17T16:11:28.938Z,15.37
2018-10-17T16:13:58.435Z,15.30
2018-10-17T16:16:28.021Z,15.22
2018-10-17T16:18:58.582Z,15.08
2018-10-17T16:21:28.155Z,14.92
2018-10-17T16:23:57.490Z,14.77
2018-10-17T16:26:27.270Z,14.61
2018-10-17T16:28:56.821Z,14.47
2018-10-17T16:31:25.665Z,14.36
2018-10-17T16:33:55.503Z,14.31
2018-10-17T16:36:25.635Z,14.27
2018-10-17T16:38:55.387Z,14.21
2018-10-17T16:41:24.098Z,14.12
2018-10-17T16:43:52.747Z,14.00
2018-10-17T16:46:21.656Z,13.91
2018-10-17T16:48:51.220Z,13.84
2018-10-17T16:51:20.786Z,13.80
2018-10-17T16:53:50.329Z,13.71
2018-10-17T16:56:18.940Z,13.60
2018-10-17T16:58:48.398Z,13.50
2018-10-17T17:01:16.996Z,13.42
2018-10-17T17:03:46.566Z,13.32
2018-10-17T17:06:15.218Z,13.23
2018-10-17T17:08:43.770Z,13.14
2018-10-17T17:11:12.990Z,13.05
2018-10-17T17:13:42.085Z,13.00
2018-10-17T17:16:10.784Z,12.93
2018-10-17T17:18:39.347Z,12.89
2018-10-17T17:21:08.018Z,12.85
2018-10-17T17:23:37.611Z,12.80
2018-10-17T17:26:07.149Z,12.73
2018-10-17T17:28:35.736Z,12.63
2018-10-17T17:31:05.569Z,12.56
2018-10-17T17:33:34.226Z,12.47
2018-10-17T17:36:02.867Z,12.39
2018-10-17T17:38:31.514Z,12.36
2018-10-17T17:41:00.116Z,12.35
2018-10-17T17:43:29.706Z,12.35
2018-10-17T17:45:59.373Z,12.32
2018-10-17T17:48:27.984Z,12.27
2018-10-17T17:50:57.304Z,12.34
2018-10-17T17:53:27.503Z,12.30
2018-10-17T17:55:56.613Z,12.14
2018-10-17T17:58:25.888Z,12.06
2018-10-17T18:00:54.764Z,11.98
2018-10-17T18:03:24.980Z,11.90
2018-10-17T18:05:55.025Z,11.84
2018-10-17T18:08:23.874Z,11.76
2018-10-17T18:10:53.975Z,11.71
2018-10-17T18:13:22.541Z,11.67
2018-10-17T18:15:51.999Z,11.63
2018-10-17T18:18:21.556Z,11.62
2018-10-17T18:20:50.916Z,11.58
2018-10-17T18:23:19.498Z,11.57
2018-10-17T18:25:48.047Z,11.54
2018-10-17T18:28:16.715Z,11.51
2018-10-17T18:30:46.113Z,11.46
2018-10-17T18:33:15.590Z,11.43
2018-10-17T18:35:44.282Z,11.39
2018-10-17T18:38:12.879Z,11.32
2018-10-17T18:40:42.886Z,11.23
2018-10-17T18:43:11.418Z,11.19
2018-10-17T18:45:40.979Z,11.16
2018-10-17T18:48:10.618Z,11.11
2018-10-17T18:50:40.174Z,11.06
2018-10-17T18:53:09.649Z,10.99
2018-10-17T18:55:38.236Z,10.96
2018-10-17T18:58:07.799Z,10.90
2018-10-17T19:00:37.417Z,10.90
2018-10-17T19:03:06.592Z,10.90
2018-10-17T19:05:36.161Z,10.90
2018-10-17T19:08:06.262Z,10.88
2018-10-17T19:10:34.996Z,10.86
2018-10-17T19:13:04.013Z,10.84
2018-10-17T19:15:32.583Z,10.80
2018-10-17T19:18:01.305Z,10.75
2018-10-17T19:20:29.951Z,10.70
2018-10-17T19:22:58.569Z,10.71
2018-10-17T19:25:28.337Z,10.72
2018-10-17T19:27:57.911Z,10.75
2018-10-17T19:30:27.135Z,10.70
2018-10-17T19:32:56.095Z,10.62
2018-10-17T19:35:24.666Z,10.53
2018-10-17T19:37:53.293Z,10.48
2018-10-17T19:40:21.850Z,10.46
2018-10-17T19:42:50.928Z,10.47
2018-10-17T19:45:19.905Z,10.47
2018-10-17T19:47:48.710Z,10.47
2018-10-17T19:50:17.613Z,10.48
2018-10-17T19:52:46.251Z,10.39
2018-10-17T19:55:14.912Z,10.31
2018-10-17T19:57:43.531Z,10.24
2018-10-17T20:00:14.752Z,10.21
2018-10-17T20:02:44.061Z,10.18
2018-10-17T20:05:13.009Z,10.16
2018-10-17T20:07:41.655Z,10.12
2018-10-17T20:10:10.342Z,10.10
2018-10-17T20:12:38.979Z,10.06
2018-10-17T20:15:07.837Z,10.02
2018-10-17T20:17:36.398Z,9.99
2018-10-17T20:20:06.853Z,10.03
2018-10-17T20:22:35.417Z,10.00
2018-10-17T20:25:05.279Z,9.96
2018-10-17T20:27:34.071Z,9.96
2018-10-17T20:30:02.648Z,9.99
2018-10-17T20:32:31.221Z,9.97
2018-10-17T20:35:00.763Z,9.96
2018-10-17T20:37:29.343Z,9.91
2018-10-17T20:39:58.740Z,9.90
2018-10-17T20:42:28.123Z,9.87
2018-10-17T20:44:58.537Z,9.84
2018-10-17T20:47:27.995Z,9.84
2018-10-17T20:49:57.306Z,9.85
2018-10-17T20:52:28.086Z,9.81
2018-10-17T20:54:56.931Z,9.91
2018-10-17T20:57:27.843Z,10.01
2018-10-17T20:59:56.866Z,9.86
2018-10-17T21:02:26.762Z,9.75
2018-10-17T21:04:56.734Z,9.62
2018-10-17T21:07:25.763Z,9.59
2018-10-17T21:09:55.037Z,9.54
2018-10-17T21:12:23.615Z,9.57
2018-10-17T21:14:52.278Z,9.62
2018-10-17T21:17:20.790Z,9.73
2018-10-17T21:19:49.363Z,9.69
2018-10-17T21:22:18.165Z,9.62
2018-10-17T21:24:47.006Z,9.46
2018-10-17T21:27:16.104Z,9.43
2018-10-17T21:29:44.833Z,9.36
2018-10-17T21:32:13.902Z,9.28
2018-10-17T21:34:43.281Z,9.25
2018-10-17T21:37:12.103Z,9.15
2018-10-17T21:39:40.720Z,9.11
2018-10-17T21:42:09.262Z,9.08
2018-10-17T21:44:37.823Z,9.11
2018-10-17T21:47:06.777Z,9.07
2018-10-17T21:49:36.047Z,9.04
2018-10-17T21:52:04.909Z,9.01
2018-10-17T21:54:33.433Z,9.02
2018-10-17T21:57:01.944Z,8.99
2018-10-17T21:59:30.513Z,8.95
2018-10-17T22:01:59.108Z,8.94
2018-10-17T22:04:28.089Z,8.94
2018-10-17T22:06:58.570Z,8.94
2018-10-17T22:09:27.491Z,8.93
2018-10-17T22:11:56.409Z,8.93
2018-10-17T22:14:25.384Z,8.90
2018-10-17T22:16:59.328Z,8.87
2018-10-17T22:19:28.805Z,8.84
2018-10-17T22:21:58.187Z,8.84
2018-10-17T22:24:27.593Z,8.84
2018-10-17T22:26:56.694Z,8.91
2018-10-17T22:29:26.487Z,8.80
2018-10-17T22:31:55.856Z,8.73
2018-10-17T22:34:25.028Z,8.65
2018-10-17T22:36:54.706Z,8.62
2018-10-17T22:39:23.284Z,8.63
2018-10-17T22:41:52.904Z,8.66
2018-10-17T22:44:21.437Z,8.62
2018-10-17T22:46:50.887Z,8.59
2018-10-17T22:49:20.486Z,8.55
2018-10-17T22:51:50.016Z,8.49
2018-10-17T22:54:19.456Z,8.43
2018-10-17T22:56:48.915Z,8.38
2018-10-17T22:59:18.403Z,8.40
2018-10-17T23:01:47.931Z,8.42
2018-10-17T23:04:17.486Z,8.47
2018-10-17T23:06:47.093Z,8.46
2018-10-17T23:09:16.498Z,8.50
2018-10-17T23:11:45.972Z,8.53
2018-10-17T23:14:14.594Z,8.54
2018-10-17T23:16:44.171Z,8.42
2018-10-17T23:19:13.086Z,8.36
2018-10-17T23:21:42.527Z,8.32
2018-10-17T23:24:12.184Z,8.30
2018-10-17T23:26:41.794Z,8.29
2018-10-17T23:29:11.298Z,8.37
2018-10-17T23:31:40.783Z,8.37
2018-10-17T23:34:09.399Z,8.32
2018-10-17T23:36:39.016Z,8.25
2018-10-17T23:39:09.581Z,8.17
2018-10-17T23:41:38.690Z,8.12
2018-10-17T23:44:07.301Z,8.10
2018-10-17T23:46:36.917Z,8.12
2018-10-17T23:49:06.442Z,8.14
2018-10-17T23:51:35.862Z,8.11
2018-10-17T23:54:04.974Z,8.05
2018-10-17T23:56:33.533Z,8.00
2018-10-17T23:59:03.082Z,7.99
